Airfield :
LOGIN :

Register | Disclaimer

   EN    FR    IT 

 










Legend :    VFR   Marginal VFR   IFR   Intensive IFR   Very Intensive IFR
Visi :
Ceiling :
>= 8 km
>= 3000ft
5 to 8 km
1000 to 3000 ft
1500m to 5 km
500 to 1000 ft
800 to 1500m
200 to 500 ft
< 800m
< 200 ft
Symbols :   Thunderstorms  Fog  Heavy snow  Heavy precipitations  Wind > 20 kt
SIGMETs :     Misc.  Thunderstorms  Icing  Turbulence  Mountain Waves  Volcanic Ashes







- Airport Elevation : 1017 ft
- Download approach charts


LFSL - Brive Souillac

CURRENT METAR :
  • 200630Z AUTO 27005KT 200V310 8000 BKN005 BKN009 OVC024 11/10 Q1013 BECMG SCT015TCU BKN035

EXPIRED METARs :
  • 200600Z AUTO 27005KT 230V310 7000 SCT006 OVC024 10/10 Q1013 BECMG BKN006
  • 200530Z AUTO 29006KT 250V310 7000 BKN005 OVC009 10/10 Q1012 NOSIG
  • 200500Z AUTO 31006KT 7000 BKN006 OVC012 10/10 Q1012 TEMPO 2500 -DZ OVC002
  • 200430Z AUTO 30007KT 260V320 7000 -DZ OVC005 10/10 Q1012 TEMPO 2500 -DZ
  • 200400Z AUTO 29006KT 260V320 7000 OVC005 10/10 Q1011 TEMPO 2500 -DZ

TAF TAF LFSL
Valid from the 20 at 06:00 until the 20 at 15:00 UTC


200500Z 2006/2015 28006KT 4000 BR OVC003
BECMG 2006/2008 8000 NSW BKN006
BECMG 2008/2010 SCT015TCU BKN035
PROB40
TEMPO 2010/2015 4000 SHRA
No reported NOTAMs for that airfield.



MET'MAP, your aeronautical weather chart ! - Copyright ORBIFLY December 2007 - Disclaimer

ORBIFLY MET'MAP TEAM :

Programming & Development : Alexandra Zaïnal
Concept & Development : Baudouin d'Aumeries
Co-Development & Prog : Marc-Olivier Méhu
Technical & hardware support : Manuel Goepfert

Contact : metmap@orbifly.com




SOURCES & CREDITS :

   NOAA